Time;durP1;ratioP1;P1;durP2;ratioP2;P2;SDS_P1;SDS_P2;PMS_P1;PMS_P2;Temp;Humidity;BMP_temperature;BMP_pressure;BME280_temperature;BME280_humidity;BME280_pressure;Samples;Min_cycle;Max_cycle;Signal;HPM_P1;HPM_P2
2023/05/08 00:00:24;;;;;;;3.03;2.00;;;;;;;;;;5008660;28;20425;-85
2023/05/08 00:02:50;;;;;;;1.90;1.57;;;;;;;;;;5022817;28;20553;-83
2023/05/08 00:05:16;;;;;;;1.80;0.97;;;;;;;;;;5024997;28;20498;-86
2023/05/08 00:07:42;;;;;;;2.27;1.50;;;;;;;;;;5004500;28;20434;-85
2023/05/08 00:10:09;;;;;;;3.23;1.17;;;;;;;;;;5024954;28;20935;-87
2023/05/08 00:12:35;;;;;;;2.80;1.47;;;;;;;;;;5023897;28;20490;-85
2023/05/08 00:15:02;;;;;;;1.07;0.67;;;;;;;;;;5005975;28;20410;-84
2023/05/08 00:17:28;;;;;;;2.23;1.77;;;;;;;;;;5019672;28;20438;-83
2023/05/08 00:19:54;;;;;;;1.70;1.37;;;;;;;;;;5023007;28;20436;-83
2023/05/08 00:22:20;;;;;;;1.17;1.00;;;;;;;;;;5024028;28;20418;-84
2023/05/08 00:24:46;;;;;;;1.50;1.00;;;;;;;;;;5004088;28;20418;-84
2023/05/08 00:27:12;;;;;;;3.20;1.43;;;;;;;;;;5024535;28;20417;-83
2023/05/08 00:29:41;;;;;;;2.27;1.57;;;;;;;;;;5027102;28;20414;-84
2023/05/08 00:32:07;;;;;;;1.77;1.33;;;;;;;;;;4989949;28;20453;-84
2023/05/08 00:34:34;;;;;;;2.30;1.60;;;;;;;;;;5004185;28;20481;-87
2023/05/08 00:37:01;;;;;;;1.80;1.27;;;;;;;;;;5021592;28;20891;-84
2023/05/08 00:39:27;;;;;;;1.93;1.43;;;;;;;;;;5021152;28;20497;-86
2023/05/08 00:41:53;;;;;;;1.57;1.27;;;;;;;;;;5022332;28;20493;-82
2023/05/08 00:44:19;;;;;;;3.30;1.60;;;;;;;;;;5021553;28;20434;-83
2023/05/08 00:46:45;;;;;;;1.50;1.20;;;;;;;;;;5023488;28;20183;-85
2023/05/08 00:49:13;;;;;;;1.53;1.40;;;;;;;;;;5022143;28;20185;-87
2023/05/08 00:51:43;;;;;;;3.43;2.07;;;;;;;;;;5021835;28;20416;-84
2023/05/08 00:54:12;;;;;;;2.93;1.70;;;;;;;;;;5021251;28;20471;-84
2023/05/08 00:56:38;;;;;;;1.70;1.43;;;;;;;;;;5023070;28;20490;-85
2023/05/08 00:59:07;;;;;;;1.90;1.53;;;;;;;;;;5021222;28;20408;-85
2023/05/08 01:01:34;;;;;;;1.33;0.90;;;;;;;;;;5004627;28;20432;-84
2023/05/08 01:04:00;;;;;;;1.23;0.60;;;;;;;;;;5005694;28;20414;-84
2023/05/08 01:06:26;;;;;;;1.10;0.90;;;;;;;;;;5023602;28;20421;-84
2023/05/08 01:08:52;;;;;;;1.13;1.00;;;;;;;;;;5021918;28;21259;-87
2023/05/08 01:11:23;;;;;;;1.97;0.97;;;;;;;;;;5006520;28;20424;-83
2023/05/08 01:14:07;;;;;;;2.20;1.50;;;;;;;;;;5018286;28;20473;-84
2023/05/08 01:16:57;;;;;;;1.37;1.17;;;;;;;;;;5023255;28;20405;-85
2023/05/08 01:19:36;;;;;;;2.50;1.23;;;;;;;;;;5023571;28;20407;-88
2023/05/08 01:22:12;;;;;;;2.23;0.63;;;;;;;;;;5021249;28;20415;-84
2023/05/08 01:24:47;;;;;;;2.03;1.60;;;;;;;;;;5021887;28;20425;-85
2023/05/08 01:27:31;;;;;;;1.73;1.20;;;;;;;;;;5021497;28;20420;-87
2023/05/08 01:30:12;;;;;;;1.93;1.80;;;;;;;;;;5021572;28;20450;-85
2023/05/08 01:32:40;;;;;;;2.53;1.00;;;;;;;;;;5021968;28;20455;-88
2023/05/08 01:35:12;;;;;;;2.43;1.17;;;;;;;;;;5003773;28;20412;-86
2023/05/08 01:37:57;;;;;;;1.20;1.10;;;;;;;;;;5021804;28;20463;-87
2023/05/08 01:40:26;;;;;;;2.13;1.13;;;;;;;;;;5022952;28;20412;-86
2023/05/08 01:43:03;;;;;;;1.20;0.90;;;;;;;;;;5020956;28;20810;-86
2023/05/08 01:45:34;;;;;;;1.70;0.80;;;;;;;;;;5022756;28;20409;-86
2023/05/08 01:48:05;;;;;;;3.37;1.37;;;;;;;;;;5025470;28;20406;-84
2023/05/08 01:50:35;;;;;;;1.73;1.40;;;;;;;;;;5023816;28;20556;-87
2023/05/08 01:53:21;;;;;;;1.30;0.90;;;;;;;;;;5025048;28;20572;-84
2023/05/08 01:55:49;;;;;;;1.53;0.80;;;;;;;;;;5026904;28;20422;-85
2023/05/08 01:58:15;;;;;;;2.00;0.93;;;;;;;;;;5008475;28;20464;-85
2023/05/08 02:00:43;;;;;;;2.57;1.40;;;;;;;;;;5024698;28;20407;-83
2023/05/08 02:03:11;;;;;;;1.97;0.93;;;;;;;;;;5021570;28;20430;-86
2023/05/08 02:05:38;;;;;;;2.57;1.53;;;;;;;;;;5025511;28;20400;-85
2023/05/08 02:08:04;;;;;;;1.57;1.13;;;;;;;;;;5026963;28;20487;-86
2023/05/08 02:10:30;;;;;;;4.53;2.17;;;;;;;;;;5025138;28;21149;-85
2023/05/08 02:12:57;;;;;;;1.77;1.37;;;;;;;;;;5025587;28;20465;-85
2023/05/08 02:15:24;;;;;;;2.40;1.57;;;;;;;;;;5026369;28;20501;-85
2023/05/08 02:17:50;;;;;;;2.00;1.40;;;;;;;;;;5024262;28;20423;-86
2023/05/08 02:20:16;;;;;;;2.60;1.80;;;;;;;;;;5016288;28;20411;-83
2023/05/08 02:22:43;;;;;;;3.73;1.40;;;;;;;;;;5016211;28;20539;-84
2023/05/08 02:25:13;;;;;;;2.97;1.70;;;;;;;;;;5016191;28;20911;-82
2023/05/08 02:27:39;;;;;;;3.10;1.40;;;;;;;;;;5016102;28;20836;-85
2023/05/08 02:30:05;;;;;;;2.93;1.50;;;;;;;;;;4998234;28;20534;-81
2023/05/08 02:32:31;;;;;;;3.73;2.50;;;;;;;;;;5016016;28;20504;-87
2023/05/08 02:34:58;;;;;;;2.50;1.53;;;;;;;;;;5016035;28;20425;-82
2023/05/08 02:37:25;;;;;;;1.57;1.47;;;;;;;;;;5015789;28;20439;-85
2023/05/08 02:39:53;;;;;;;2.53;1.80;;;;;;;;;;5015855;28;20421;-85
2023/05/08 02:42:19;;;;;;;1.97;1.80;;;;;;;;;;5015912;28;20404;-86
2023/05/08 02:44:45;;;;;;;2.50;1.47;;;;;;;;;;5015456;28;20446;-83
2023/05/08 02:47:43;;;;;;;3.33;1.57;;;;;;;;;;5015607;28;20879;-82
2023/05/08 02:50:14;;;;;;;11.67;2.30;;;;;;;;;;4992934;28;20428;-83
2023/05/08 02:52:43;;;;;;;2.30;1.90;;;;;;;;;;5015395;28;20495;-86
2023/05/08 02:55:12;;;;;;;2.50;1.57;;;;;;;;;;5014584;28;20780;-85
2023/05/08 02:57:42;;;;;;;2.20;1.50;;;;;;;;;;5015572;28;20769;-84
2023/05/08 03:00:11;;;;;;;2.37;1.47;;;;;;;;;;5015017;28;20421;-82
2023/05/08 03:02:39;;;;;;;3.40;2.10;;;;;;;;;;5015267;28;20977;-82
2023/05/08 03:05:17;;;;;;;2.00;1.47;;;;;;;;;;5015403;28;20406;-88
2023/05/08 03:07:43;;;;;;;3.87;1.83;;;;;;;;;;4997753;28;20491;-85
2023/05/08 03:10:14;;;;;;;2.40;2.13;;;;;;;;;;4997812;28;20422;-82
2023/05/08 03:12:42;;;;;;;2.40;1.90;;;;;;;;;;5015179;28;20986;-86
2023/05/08 03:15:12;;;;;;;1.80;1.60;;;;;;;;;;4997361;28;20500;-86
2023/05/08 03:17:39;;;;;;;2.67;2.20;;;;;;;;;;5015126;28;20409;-84
2023/05/08 03:20:06;;;;;;;2.57;1.50;;;;;;;;;;5015173;28;20475;-85
2023/05/08 03:22:34;;;;;;;2.33;1.80;;;;;;;;;;5015081;28;20409;-85
2023/05/08 03:25:02;;;;;;;2.20;1.90;;;;;;;;;;5014917;28;20411;-85
2023/05/08 03:27:29;;;;;;;2.17;1.97;;;;;;;;;;4997428;28;20819;-86
2023/05/08 03:29:56;;;;;;;2.40;1.43;;;;;;;;;;5014669;28;20860;-86
2023/05/08 03:32:23;;;;;;;2.20;2.00;;;;;;;;;;5022394;28;20965;-85
2023/05/08 03:34:50;;;;;;;4.23;2.97;;;;;;;;;;5016928;28;20451;-82
2023/05/08 03:37:16;;;;;;;2.23;2.00;;;;;;;;;;5034790;28;20423;-86
2023/05/08 03:39:42;;;;;;;3.10;2.30;;;;;;;;;;5034598;28;20417;-87
2023/05/08 03:42:08;;;;;;;2.20;1.67;;;;;;;;;;5034581;28;20414;-87
2023/05/08 03:44:37;;;;;;;2.60;1.87;;;;;;;;;;5016376;28;20442;-85
2023/05/08 03:47:07;;;;;;;2.57;2.00;;;;;;;;;;5034499;28;20776;-84
2023/05/08 03:49:33;;;;;;;2.90;1.83;;;;;;;;;;5034343;28;20408;-86
2023/05/08 03:51:59;;;;;;;2.60;1.80;;;;;;;;;;5034320;28;20432;-83
2023/05/08 03:54:27;;;;;;;2.93;2.70;;;;;;;;;;5034258;28;20855;-87
2023/05/08 03:56:53;;;;;;;6.47;2.27;;;;;;;;;;5034192;28;20519;-84
2023/05/08 03:59:38;;;;;;;4.60;1.67;;;;;;;;;;5033860;28;20419;-85
2023/05/08 04:02:11;;;;;;;2.90;2.50;;;;;;;;;;5016435;28;20904;-86
2023/05/08 04:04:40;;;;;;;2.10;1.90;;;;;;;;;;5034032;28;20770;-87
2023/05/08 04:07:15;;;;;;;4.03;2.53;;;;;;;;;;5032834;28;20441;-85
2023/05/08 04:09:49;;;;;;;3.97;2.27;;;;;;;;;;5034213;28;20180;-88
2023/05/08 04:12:17;;;;;;;4.53;2.80;;;;;;;;;;5033877;28;20472;-85
2023/05/08 04:14:47;;;;;;;4.30;3.00;;;;;;;;;;5033320;28;20401;-87
2023/05/08 04:17:15;;;;;;;4.87;3.23;;;;;;;;;;5033815;28;20179;-87
2023/05/08 04:19:44;;;;;;;2.90;2.13;;;;;;;;;;5034035;28;20511;-86
2023/05/08 04:22:11;;;;;;;3.93;2.50;;;;;;;;;;5033625;28;20401;-88
2023/05/08 04:24:40;;;;;;;3.13;2.47;;;;;;;;;;5033888;28;20414;-88
2023/05/08 04:27:06;;;;;;;3.40;2.27;;;;;;;;;;5033781;28;20419;-87
2023/05/08 04:29:33;;;;;;;3.90;1.97;;;;;;;;;;5033354;28;20499;-87
2023/05/08 04:32:00;;;;;;;2.87;1.83;;;;;;;;;;5033644;28;20411;-90
2023/05/08 04:34:26;;;;;;;3.60;1.97;;;;;;;;;;5017885;28;20537;-80
2023/05/08 04:36:52;;;;;;;3.13;1.90;;;;;;;;;;5015836;28;20930;-87
2023/05/08 04:39:18;;;;;;;2.57;1.93;;;;;;;;;;5015698;28;20423;-88
2023/05/08 04:41:46;;;;;;;3.20;2.40;;;;;;;;;;5033433;28;20960;-88
2023/05/08 04:44:13;;;;;;;2.23;1.47;;;;;;;;;;5033141;28;20515;-88
2023/05/08 04:46:38;;;;;;;3.77;2.67;;;;;;;;;;5033440;28;20464;-86
2023/05/08 04:49:04;;;;;;;3.10;2.77;;;;;;;;;;5033310;28;20421;-84
2023/05/08 04:51:30;;;;;;;3.20;2.90;;;;;;;;;;5033434;28;20165;-87
2023/05/08 04:53:57;;;;;;;3.50;2.57;;;;;;;;;;5015184;28;20512;-86
2023/05/08 04:56:23;;;;;;;2.77;2.20;;;;;;;;;;5015644;28;20450;-87
2023/05/08 04:58:51;;;;;;;5.23;2.40;;;;;;;;;;5015264;28;20421;-85
2023/05/08 05:01:17;;;;;;;4.57;2.10;;;;;;;;;;5033326;28;20516;-88
2023/05/08 05:03:43;;;;;;;2.83;2.30;;;;;;;;;;5015363;28;20453;-86
2023/05/08 05:06:09;;;;;;;2.80;2.60;;;;;;;;;;5033219;28;20867;-85
2023/05/08 05:08:36;;;;;;;2.57;1.20;;;;;;;;;;5015922;28;20444;-85
2023/05/08 05:11:02;;;;;;;3.90;2.63;;;;;;;;;;5033331;28;20413;-87
2023/05/08 05:13:28;;;;;;;3.50;1.90;;;;;;;;;;5033024;28;20505;-84
2023/05/08 05:15:54;;;;;;;2.83;2.20;;;;;;;;;;5015037;28;20424;-85
2023/05/08 05:18:21;;;;;;;4.77;2.73;;;;;;;;;;5034678;28;20927;-86
2023/05/08 05:20:46;;;;;;;4.17;2.90;;;;;;;;;;5033636;28;20513;-89
2023/05/08 05:23:12;;;;;;;5.10;3.10;;;;;;;;;;5033008;28;20500;-85
2023/05/08 05:25:38;;;;;;;2.93;2.67;;;;;;;;;;5033114;28;20752;-88
2023/05/08 05:28:05;;;;;;;3.10;2.47;;;;;;;;;;5029353;28;20902;-85
2023/05/08 05:30:31;;;;;;;3.03;2.70;;;;;;;;;;5021757;28;20434;-84
2023/05/08 05:32:59;;;;;;;2.97;2.70;;;;;;;;;;5021747;28;20468;-85
2023/05/08 05:35:25;;;;;;;3.63;2.33;;;;;;;;;;4995533;28;20424;-88
2023/05/08 05:37:51;;;;;;;3.93;2.70;;;;;;;;;;5013244;28;20769;-89
2023/05/08 05:40:17;;;;;;;4.70;2.47;;;;;;;;;;5013099;28;20405;-87
2023/05/08 05:42:48;;;;;;;1.87;1.70;;;;;;;;;;5013306;28;20451;-86
2023/05/08 05:45:14;;;;;;;3.10;2.73;;;;;;;;;;5012976;28;20413;-87
2023/05/08 05:47:43;;;;;;;3.50;2.33;;;;;;;;;;5013370;28;20418;-89
2023/05/08 05:50:09;;;;;;;3.73;2.43;;;;;;;;;;5013258;28;20425;-91
2023/05/08 05:52:35;;;;;;;2.53;2.33;;;;;;;;;;4995439;28;20842;-88
2023/05/08 05:55:01;;;;;;;2.60;1.60;;;;;;;;;;5013070;28;20414;-86
2023/05/08 05:57:27;;;;;;;2.40;2.20;;;;;;;;;;5013549;28;20415;-86
2023/05/08 05:59:53;;;;;;;3.40;2.33;;;;;;;;;;5013188;28;20497;-87
2023/05/08 06:02:19;;;;;;;4.77;3.83;;;;;;;;;;5013512;28;20173;-86
2023/05/08 06:04:46;;;;;;;4.23;2.57;;;;;;;;;;5014019;28;20175;-87
2023/05/08 06:07:14;;;;;;;3.67;2.77;;;;;;;;;;5012771;28;20421;-86
2023/05/08 06:09:40;;;;;;;3.47;2.70;;;;;;;;;;4995320;28;20458;-87
2023/05/08 06:12:07;;;;;;;3.47;2.63;;;;;;;;;;5012761;28;20462;-86
2023/05/08 06:14:36;;;;;;;3.13;2.30;;;;;;;;;;5012423;28;20904;-89
2023/05/08 06:17:02;;;;;;;2.87;2.33;;;;;;;;;;5012977;28;20413;-87
2023/05/08 06:19:28;;;;;;;3.03;2.20;;;;;;;;;;4995387;28;20421;-89
2023/05/08 06:21:54;;;;;;;2.57;1.70;;;;;;;;;;5012808;28;20195;-88
2023/05/08 06:24:20;;;;;;;3.93;2.10;;;;;;;;;;5012849;28;20768;-86
2023/05/08 06:26:46;;;;;;;5.07;2.60;;;;;;;;;;5013056;28;20402;-84
2023/05/08 06:29:12;;;;;;;3.23;2.67;;;;;;;;;;5012936;28;20449;-90
2023/05/08 06:31:38;;;;;;;3.50;2.83;;;;;;;;;;5016166;28;20193;-86
2023/05/08 06:34:04;;;;;;;3.73;1.87;;;;;;;;;;5000804;28;21050;-88
2023/05/08 06:36:30;;;;;;;3.80;2.00;;;;;;;;;;5020229;28;20274;-89
2023/05/08 06:38:56;;;;;;;2.53;1.90;;;;;;;;;;5020377;28;20248;-89
2023/05/08 06:41:22;;;;;;;3.17;2.07;;;;;;;;;;5001902;28;20918;-92
2023/05/08 06:43:48;;;;;;;2.80;1.93;;;;;;;;;;5018446;28;20424;-88
2023/05/08 06:46:14;;;;;;;4.80;1.90;;;;;;;;;;5018574;28;20420;-88
2023/05/08 06:48:40;;;;;;;3.40;2.77;;;;;;;;;;5000709;28;20420;-86
2023/05/08 06:51:06;;;;;;;3.60;2.30;;;;;;;;;;5017857;28;20564;-86
2023/05/08 06:53:32;;;;;;;3.70;2.70;;;;;;;;;;5016566;28;20233;-88
2023/05/08 06:55:58;;;;;;;3.33;3.03;;;;;;;;;;5018495;28;20471;-86
2023/05/08 06:58:24;;;;;;;2.87;2.60;;;;;;;;;;5000512;28;20429;-87
2023/05/08 07:00:50;;;;;;;4.97;2.50;;;;;;;;;;5018048;28;20487;-85
2023/05/08 07:03:16;;;;;;;3.23;2.30;;;;;;;;;;5017698;28;20425;-84
2023/05/08 07:05:42;;;;;;;3.53;2.70;;;;;;;;;;5000474;28;20177;-86
2023/05/08 07:08:08;;;;;;;2.30;1.80;;;;;;;;;;5017477;28;20416;-86
2023/05/08 07:10:34;;;;;;;2.83;2.40;;;;;;;;;;5001180;28;20540;-87
2023/05/08 07:13:00;;;;;;;3.50;2.57;;;;;;;;;;5019112;28;20214;-89
2023/05/08 07:15:26;;;;;;;3.43;2.17;;;;;;;;;;5017466;28;20412;-84
2023/05/08 07:17:51;;;;;;;3.50;3.20;;;;;;;;;;5017924;28;20421;-85
2023/05/08 07:20:17;;;;;;;9.50;2.80;;;;;;;;;;5016393;28;20431;-85
2023/05/08 07:22:43;;;;;;;3.80;3.40;;;;;;;;;;4999057;28;20446;-88
2023/05/08 07:25:09;;;;;;;3.67;2.60;;;;;;;;;;5017220;28;20262;-86
2023/05/08 07:27:35;;;;;;;4.00;2.90;;;;;;;;;;4999131;28;20190;-83
2023/05/08 07:30:03;;;;;;;4.03;3.07;;;;;;;;;;5014852;28;20427;-87
2023/05/08 07:32:30;;;;;;;3.93;3.10;;;;;;;;;;5015507;28;20990;-86
2023/05/08 07:34:56;;;;;;;3.33;3.00;;;;;;;;;;4998339;28;20457;-85
2023/05/08 07:37:22;;;;;;;4.47;3.63;;;;;;;;;;5017045;28;20402;-87
2023/05/08 07:39:48;;;;;;;4.33;3.77;;;;;;;;;;5017964;28;20637;-85
2023/05/08 07:42:14;;;;;;;4.23;3.50;;;;;;;;;;5017216;28;20410;-87
2023/05/08 07:44:40;;;;;;;3.67;3.30;;;;;;;;;;5017161;28;20173;-88
2023/05/08 07:47:06;;;;;;;3.23;2.80;;;;;;;;;;5016390;28;20521;-85
2023/05/08 07:49:31;;;;;;;4.33;3.93;;;;;;;;;;5015976;28;20851;-84
2023/05/08 07:51:57;;;;;;;3.60;3.13;;;;;;;;;;4998671;28;20178;-86
2023/05/08 07:54:23;;;;;;;3.60;3.00;;;;;;;;;;5016291;28;20239;-84
2023/05/08 07:56:49;;;;;;;2.83;2.53;;;;;;;;;;5016074;28;20417;-88
2023/05/08 07:59:15;;;;;;;3.83;3.00;;;;;;;;;;5015512;28;20205;-85
2023/05/08 08:01:45;;;;;;;2.93;2.63;;;;;;;;;;5014386;28;20590;-86
2023/05/08 08:04:11;;;;;;;3.80;3.47;;;;;;;;;;5016028;28;20855;-86
2023/05/08 08:06:37;;;;;;;4.70;3.20;;;;;;;;;;5015661;28;20453;-85
2023/05/08 08:09:03;;;;;;;4.17;3.50;;;;;;;;;;5015049;28;20253;-84
2023/05/08 08:11:29;;;;;;;4.03;3.50;;;;;;;;;;5016513;28;20179;-85
2023/05/08 08:13:55;;;;;;;5.03;3.50;;;;;;;;;;5015836;28;20207;-83
2023/05/08 08:16:21;;;;;;;3.63;3.20;;;;;;;;;;4998096;28;20559;-86
2023/05/08 08:18:47;;;;;;;5.10;4.10;;;;;;;;;;4997048;28;20428;-84
2023/05/08 08:21:13;;;;;;;5.47;4.03;;;;;;;;;;5014651;28;20430;-86
2023/05/08 08:23:39;;;;;;;3.77;3.40;;;;;;;;;;4997340;28;20181;-85
2023/05/08 08:26:04;;;;;;;3.60;3.30;;;;;;;;;;5016317;28;20417;-87
2023/05/08 08:28:30;;;;;;;4.43;3.80;;;;;;;;;;5015798;28;20648;-87
2023/05/08 08:30:56;;;;;;;3.73;3.30;;;;;;;;;;5013954;28;20574;-89
2023/05/08 08:33:22;;;;;;;5.33;4.47;;;;;;;;;;5013849;28;20480;-85
2023/05/08 08:35:48;;;;;;;4.70;4.30;;;;;;;;;;5014141;28;20504;-85
2023/05/08 08:38:15;;;;;;;5.00;4.33;;;;;;;;;;5013643;28;20442;-86
2023/05/08 08:40:42;;;;;;;3.97;3.63;;;;;;;;;;4996184;28;20474;-86
2023/05/08 08:43:08;;;;;;;5.60;3.60;;;;;;;;;;4996389;28;20427;-83
2023/05/08 08:45:35;;;;;;;4.00;3.53;;;;;;;;;;5013691;28;20448;-88
2023/05/08 08:48:02;;;;;;;3.83;3.43;;;;;;;;;;5013895;28;20435;-90
2023/05/08 08:50:31;;;;;;;3.10;2.80;;;;;;;;;;5013551;28;20405;-88
2023/05/08 08:53:07;;;;;;;4.20;3.80;;;;;;;;;;5012495;28;20473;-87
2023/05/08 08:55:35;;;;;;;3.77;3.47;;;;;;;;;;5014026;28;20417;-83
2023/05/08 08:58:16;;;;;;;4.03;3.10;;;;;;;;;;5013106;28;20464;-87
2023/05/08 09:00:42;;;;;;;7.13;4.17;;;;;;;;;;5013416;28;20417;-85
2023/05/08 09:03:09;;;;;;;3.80;3.40;;;;;;;;;;5013386;28;20404;-83
2023/05/08 09:05:35;;;;;;;9.30;4.10;;;;;;;;;;5013363;28;20437;-85
2023/05/08 09:08:02;;;;;;;4.07;3.67;;;;;;;;;;5013388;28;20918;-84
2023/05/08 09:10:28;;;;;;;3.30;3.00;;;;;;;;;;5013267;28;20948;-83
2023/05/08 09:12:54;;;;;;;4.60;3.90;;;;;;;;;;5012904;28;20477;-83
2023/05/08 09:15:20;;;;;;;3.67;3.00;;;;;;;;;;5013299;28;20408;-84
2023/05/08 09:17:46;;;;;;;4.00;3.60;;;;;;;;;;5013238;28;20411;-84
2023/05/08 09:20:14;;;;;;;2.83;2.63;;;;;;;;;;5013192;28;20400;-83
2023/05/08 09:22:40;;;;;;;3.47;2.90;;;;;;;;;;4995589;28;20451;-82
2023/05/08 09:25:06;;;;;;;2.70;2.50;;;;;;;;;;5013280;28;20904;-83
2023/05/08 09:27:33;;;;;;;3.03;2.73;;;;;;;;;;5013028;28;20406;-83
2023/05/08 09:30:03;;;;;;;3.93;3.27;;;;;;;;;;5012754;28;20933;-83
2023/05/08 09:32:30;;;;;;;3.23;2.93;;;;;;;;;;5012959;28;20484;-83
2023/05/08 09:34:56;;;;;;;3.23;2.70;;;;;;;;;;5013311;28;20445;-83
2023/05/08 09:37:22;;;;;;;3.37;2.50;;;;;;;;;;4995751;28;20419;-84
2023/05/08 09:39:48;;;;;;;3.93;3.07;;;;;;;;;;5013338;28;20916;-84
2023/05/08 09:42:14;;;;;;;3.13;2.70;;;;;;;;;;5013080;28;20440;-83
2023/05/08 09:44:44;;;;;;;3.37;3.00;;;;;;;;;;5012895;28;20414;-88
2023/05/08 09:47:14;;;;;;;2.80;2.57;;;;;;;;;;5013050;28;20702;-85
2023/05/08 09:49:56;;;;;;;2.83;2.13;;;;;;;;;;5013049;28;20762;-84
2023/05/08 09:52:25;;;;;;;2.90;2.70;;;;;;;;;;5013773;28;20472;-86
2023/05/08 09:55:04;;;;;;;3.10;2.30;;;;;;;;;;5013804;28;20418;-85
2023/05/08 09:57:32;;;;;;;2.67;2.47;;;;;;;;;;5013518;28;20406;-83
2023/05/08 10:00:02;;;;;;;3.20;2.40;;;;;;;;;;5012715;28;20814;-87
2023/05/08 10:02:28;;;;;;;3.50;2.43;;;;;;;;;;5013058;28;20407;-86
2023/05/08 10:04:54;;;;;;;2.90;2.60;;;;;;;;;;5014962;28;20423;-86
2023/05/08 10:07:29;;;;;;;4.50;2.60;;;;;;;;;;5017143;28;20414;-82
2023/05/08 10:09:59;;;;;;;3.93;2.60;;;;;;;;;;5017205;28;20179;-82
2023/05/08 10:12:26;;;;;;;3.43;2.50;;;;;;;;;;5017043;28;20519;-85
2023/05/08 10:14:52;;;;;;;3.70;2.63;;;;;;;;;;5016637;28;20520;-85
2023/05/08 10:17:20;;;;;;;3.50;2.63;;;;;;;;;;5016738;28;20414;-83
2023/05/08 10:19:48;;;;;;;2.50;2.20;;;;;;;;;;5016246;28;20426;-82
2023/05/08 10:22:15;;;;;;;3.43;3.13;;;;;;;;;;5016358;28;20414;-85
2023/05/08 10:24:43;;;;;;;2.80;1.93;;;;;;;;;;5016105;28;20508;-84
2023/05/08 10:27:13;;;;;;;2.60;2.40;;;;;;;;;;5016131;28;20408;-86
2023/05/08 10:29:46;;;;;;;2.33;2.13;;;;;;;;;;5015845;28;20802;-85
2023/05/08 10:32:14;;;;;;;2.60;1.83;;;;;;;;;;5015893;28;20413;-84
2023/05/08 10:34:41;;;;;;;2.60;2.10;;;;;;;;;;5016066;28;20416;-87
2023/05/08 10:37:10;;;;;;;2.83;2.07;;;;;;;;;;5016262;28;20416;-86
2023/05/08 10:39:36;;;;;;;2.67;2.13;;;;;;;;;;4998394;28;20523;-84
2023/05/08 10:42:02;;;;;;;2.40;2.20;;;;;;;;;;5016034;28;20929;-85
2023/05/08 10:44:29;;;;;;;2.33;1.70;;;;;;;;;;5015338;28;20425;-87
2023/05/08 10:47:07;;;;;;;3.07;1.80;;;;;;;;;;5019859;28;20440;-86
2023/05/08 10:49:39;;;;;;;2.30;2.00;;;;;;;;;;5015750;28;20888;-88
2023/05/08 10:52:18;;;;;;;1.70;1.20;;;;;;;;;;5015464;28;20991;-85
2023/05/08 10:54:53;;;;;;;1.60;1.50;;;;;;;;;;5016243;28;20426;-88
2023/05/08 10:57:19;;;;;;;1.90;1.30;;;;;;;;;;5015561;28;20449;-87
2023/05/08 10:59:46;;;;;;;2.33;1.97;;;;;;;;;;5015276;28;20410;-85
2023/05/08 11:02:12;;;;;;;1.77;1.50;;;;;;;;;;5015614;28;20421;-86
2023/05/08 11:04:38;;;;;;;1.97;1.80;;;;;;;;;;5015500;28;20410;-87
2023/05/08 11:07:04;;;;;;;2.37;1.20;;;;;;;;;;5015584;28;20466;-83
2023/05/08 11:09:45;;;;;;;2.03;1.30;;;;;;;;;;5015451;28;20411;-83
2023/05/08 11:12:22;;;;;;;1.63;1.53;;;;;;;;;;4997778;28;20425;-84
2023/05/08 11:14:57;;;;;;;2.03;1.33;;;;;;;;;;5015110;28;20422;-86
2023/05/08 11:17:23;;;;;;;1.83;1.10;;;;;;;;;;5014380;28;20449;-85
2023/05/08 11:19:55;;;;;;;1.70;1.33;;;;;;;;;;4997477;28;20794;-84
2023/05/08 11:22:22;;;;;;;1.87;1.67;;;;;;;;;;4997647;28;20787;-83
2023/05/08 11:24:48;;;;;;;1.33;0.93;;;;;;;;;;5015184;28;20412;-83
2023/05/08 11:27:14;;;;;;;1.90;1.03;;;;;;;;;;5014998;28;20418;-86
2023/05/08 11:29:40;;;;;;;2.30;1.10;;;;;;;;;;4996979;28;20416;-85
2023/05/08 11:32:06;;;;;;;1.43;1.27;;;;;;;;;;5014768;28;20408;-84
2023/05/08 11:34:41;;;;;;;1.63;1.30;;;;;;;;;;5014863;28;20418;-85
2023/05/08 11:37:21;;;;;;;1.10;0.93;;;;;;;;;;5014781;28;20175;-84
2023/05/08 11:39:47;;;;;;;1.43;1.20;;;;;;;;;;5014823;28;20422;-85
2023/05/08 11:42:28;;;;;;;1.30;1.03;;;;;;;;;;5014577;28;20406;-82
2023/05/08 11:45:07;;;;;;;3.10;2.10;;;;;;;;;;5014725;28;20762;-84
2023/05/08 11:47:37;;;;;;;1.20;0.73;;;;;;;;;;5014556;28;20410;-84
2023/05/08 11:50:04;;;;;;;1.87;1.03;;;;;;;;;;5014592;28;20700;-85
2023/05/08 11:52:36;;;;;;;1.33;1.00;;;;;;;;;;5014306;28;20481;-85
2023/05/08 11:55:06;;;;;;;1.50;1.00;;;;;;;;;;5014428;28;20418;-86
2023/05/08 11:57:33;;;;;;;1.30;0.93;;;;;;;;;;4996331;28;20899;-83
2023/05/08 12:00:04;;;;;;;1.23;0.70;;;;;;;;;;4996588;28;20959;-85
2023/05/08 12:02:34;;;;;;;2.80;1.30;;;;;;;;;;4997185;28;20759;-84
2023/05/08 12:05:00;;;;;;;1.53;1.37;;;;;;;;;;5014723;28;20787;-82
2023/05/08 12:07:27;;;;;;;1.20;0.73;;;;;;;;;;4996831;28;20418;-82
2023/05/08 12:09:52;;;;;;;1.20;0.70;;;;;;;;;;4996678;28;20449;-83
2023/05/08 12:12:18;;;;;;;1.70;1.27;;;;;;;;;;5013980;28;20505;-82
2023/05/08 12:14:48;;;;;;;2.80;1.37;;;;;;;;;;5014053;28;20179;-84
2023/05/08 12:17:17;;;;;;;2.40;0.90;;;;;;;;;;5014099;28;20213;-88
2023/05/08 12:19:43;;;;;;;1.20;0.67;;;;;;;;;;5014025;28;20428;-83
2023/05/08 12:22:09;;;;;;;1.27;0.80;;;;;;;;;;5014697;28;20406;-84
2023/05/08 12:24:35;;;;;;;1.20;0.80;;;;;;;;;;4996340;28;20205;-83
2023/05/08 12:27:01;;;;;;;1.00;0.60;;;;;;;;;;5013911;28;20637;-84
2023/05/08 12:29:27;;;;;;;1.53;1.10;;;;;;;;;;5013485;28;20504;-83
2023/05/08 12:31:53;;;;;;;1.43;1.00;;;;;;;;;;5013903;28;20406;-81
2023/05/08 12:34:19;;;;;;;1.97;1.10;;;;;;;;;;5013763;28;20481;-84
2023/05/08 12:36:45;;;;;;;1.33;1.10;;;;;;;;;;5013786;28;20799;-84
2023/05/08 12:39:15;;;;;;;2.00;1.47;;;;;;;;;;5013723;28;20418;-83
2023/05/08 12:41:41;;;;;;;1.87;0.90;;;;;;;;;;4996284;28;20418;-86
2023/05/08 12:44:16;;;;;;;1.90;1.30;;;;;;;;;;5013405;28;20497;-84
2023/05/08 12:46:45;;;;;;;1.30;0.90;;;;;;;;;;5013646;28;20445;-87
2023/05/08 12:49:11;;;;;;;1.80;1.03;;;;;;;;;;5013672;28;20394;-83
2023/05/08 12:51:39;;;;;;;1.73;0.70;;;;;;;;;;5014023;28;20406;-88
2023/05/08 12:54:05;;;;;;;1.80;1.33;;;;;;;;;;5013232;28;20477;-85
2023/05/08 12:56:34;;;;;;;1.57;1.00;;;;;;;;;;5013531;28;20402;-84
2023/05/08 12:59:00;;;;;;;1.47;0.87;;;;;;;;;;5013177;28;20574;-85
2023/05/08 13:01:26;;;;;;;1.43;1.20;;;;;;;;;;5013550;28;20465;-85
2023/05/08 13:03:53;;;;;;;2.70;1.10;;;;;;;;;;5013564;28;20410;-83
2023/05/08 13:06:20;;;;;;;1.00;0.83;;;;;;;;;;5013248;28;20190;-85
2023/05/08 13:08:52;;;;;;;1.37;1.20;;;;;;;;;;5013309;28;20410;-84
2023/05/08 13:11:27;;;;;;;1.23;1.13;;;;;;;;;;5013417;28;20410;-82
2023/05/08 13:13:53;;;;;;;1.40;1.23;;;;;;;;;;5012963;28;20517;-83
2023/05/08 13:16:19;;;;;;;1.57;0.87;;;;;;;;;;5013156;28;20434;-84
2023/05/08 13:18:45;;;;;;;1.80;1.20;;;;;;;;;;5013129;28;20422;-84
2023/05/08 13:21:11;;;;;;;1.40;0.87;;;;;;;;;;5013528;28;20171;-85
2023/05/08 13:23:38;;;;;;;1.63;1.07;;;;;;;;;;5013414;28;20171;-81
2023/05/08 13:26:04;;;;;;;1.73;1.00;;;;;;;;;;5013213;28;20170;-84
2023/05/08 13:28:36;;;;;;;1.30;0.73;;;;;;;;;;5012638;28;20414;-83
2023/05/08 13:31:02;;;;;;;1.27;0.77;;;;;;;;;;5013005;28;20406;-84
2023/05/08 13:33:36;;;;;;;1.30;0.73;;;;;;;;;;5012824;28;20464;-82
2023/05/08 13:36:02;;;;;;;2.00;1.80;;;;;;;;;;5015138;28;20233;-82
2023/05/08 13:38:28;;;;;;;1.33;0.70;;;;;;;;;;5018494;28;20422;-84
2023/05/08 13:40:57;;;;;;;1.47;1.37;;;;;;;;;;5025806;28;20405;-82
2023/05/08 13:43:23;;;;;;;1.50;0.60;;;;;;;;;;5028392;28;20185;-83
2023/05/08 13:45:49;;;;;;;1.53;0.93;;;;;;;;;;5025997;28;20834;-84
2023/05/08 13:48:15;;;;;;;1.60;0.80;;;;;;;;;;5025691;28;20185;-84
2023/05/08 13:50:41;;;;;;;1.10;0.90;;;;;;;;;;5026668;28;20410;-84
2023/05/08 13:53:07;;;;;;;1.10;0.83;;;;;;;;;;5025131;28;20257;-83
2023/05/08 13:55:32;;;;;;;2.00;0.90;;;;;;;;;;5025625;28;20181;-83
2023/05/08 13:57:58;;;;;;;0.80;0.70;;;;;;;;;;5026699;28;20418;-84
2023/05/08 14:00:24;;;;;;;1.17;0.83;;;;;;;;;;5025290;28;20185;-83
2023/05/08 14:02:50;;;;;;;0.83;0.70;;;;;;;;;;5025899;28;20641;-83
2023/05/08 14:05:16;;;;;;;1.27;1.17;;;;;;;;;;5026714;28;20505;-82
2023/05/08 14:07:43;;;;;;;1.20;0.90;;;;;;;;;;5024677;28;20177;-80
2023/05/08 14:10:09;;;;;;;1.83;1.10;;;;;;;;;;5025848;28;20178;-83
2023/05/08 14:12:36;;;;;;;2.00;1.90;;;;;;;;;;5025987;28;20799;-82
2023/05/08 14:15:02;;;;;;;1.53;0.93;;;;;;;;;;5006939;28;20858;-86
2023/05/08 14:17:28;;;;;;;1.20;0.80;;;;;;;;;;5025924;28;20444;-84
2023/05/08 14:19:54;;;;;;;2.60;0.80;;;;;;;;;;5008350;28;20422;-84
2023/05/08 14:22:20;;;;;;;1.53;1.17;;;;;;;;;;5024524;28;20412;-86
2023/05/08 14:24:46;;;;;;;2.10;1.00;;;;;;;;;;5026098;28;20172;-82
2023/05/08 14:27:12;;;;;;;1.30;0.80;;;;;;;;;;5025266;28;20452;-82
2023/05/08 14:29:38;;;;;;;1.43;1.37;;;;;;;;;;5024280;28;20550;-84
2023/05/08 14:32:04;;;;;;;1.87;1.10;;;;;;;;;;5026311;28;20420;-84
2023/05/08 14:34:30;;;;;;;2.40;0.80;;;;;;;;;;5007505;28;20481;-82
2023/05/08 14:36:56;;;;;;;0.97;0.53;;;;;;;;;;5024514;28;20421;-84
2023/05/08 14:39:22;;;;;;;0.70;0.43;;;;;;;;;;5026196;28;20463;-84
2023/05/08 14:41:48;;;;;;;0.80;0.80;;;;;;;;;;5025000;28;20241;-83
2023/05/08 14:44:13;;;;;;;1.30;0.83;;;;;;;;;;5024301;28;20281;-83
2023/05/08 14:46:39;;;;;;;0.97;0.60;;;;;;;;;;5026093;28;20253;-83